Skip to main content.
Our real time weather data display below is updated continuously via our 24/7 live data feed.
 TIME   TEMPERATURE   WINDSPEED   DIRECTION   HUMIDITY   BAROMETER   RAINFALL 
2:35 23.0°C (73.4°F) 5.6 kmh (3.5 mph) W 78% 1016.9hPa (30.03 inHg) 0.0mm (0.00 in.)
1:35 24.0°C (75.2 °F) 3.7 kmh (2.3 mph) W 73% 1016.9hPa (30.03 inHg) 0.0mm (0.00 in.)
0:35 24.0°C (75.2 °F) 1.9 kmh (1.2 mph) W 78% 1016.9hPa (30.03 inHg) 0.0mm (0.00 in.)
23:35 25.0°C (77.0 °F) 1.9 kmh (1.2 mph) W 78% 1016.9hPa (30.03 inHg) 0.0mm (0.00 in.)
22:35 25.0°C (77.0 °F) 3.7 kmh (2.3 mph) SSE 73% 1017.9hPa (30.06 inHg) 0.0mm (0.00 in.)
21:35 26.0°C (78.8 °F) 3.7 kmh (2.3 mph) SSE 73% 1016.9hPa (30.03 inHg) 0.0mm (0.00 in.)
20:35 26.0°C (78.8 °F) 3.7 kmh (2.3 mph) SSW 73% 1016.9hPa (30.03 inHg) 0.0mm (0.00 in.)
19:35 27.0°C (80.6 °F) 7.4 kmh (4.6 mph) WSW 69% 1015.9hPa (30.00 inHg) 0.0mm (0.00 in.)
18:35 28.0°C (82.4 °F) 5.6 kmh (3.5 mph) SSW 61% 1016.9hPa (30.03 inHg) 0.0mm (0.00 in.)
17:35 28.0°C (82.4 °F) 11.1 kmh (6.9 mph) SSW 61% 1016.9hPa (30.03 inHg) 0.0mm (0.00 in.)
16:35 29.0°C (84.2 °F) 9.3 kmh (5.8 mph) ENE 54% 1016.9hPa (30.03 inHg) 0.0mm (0.00 in.)
15:35 29.0°C (84.2 °F) 5.6 kmh (3.5 mph) N 54% 1016.9hPa (30.03 inHg) 0.0mm (0.00 in.)
14:35 29.0°C (84.2 °F) 7.4 kmh (4.6 mph) E 58% 1017.9hPa (30.06 inHg) 0.0mm (0.00 in.)
13:35 30.0°C (86.0 °F) 5.6 kmh (3.5 mph) N 55% 1017.9hPa (30.06 inHg) 0.0mm (0.00 in.)
12:35 28.0°C (82.4 °F) 11.1 kmh (6.9 mph) NE 61% 1017.9hPa (30.06 inHg) 0.0mm (0.00 in.)
11:35 27.0°C (80.6 °F) 9.3 kmh (5.8 mph) NE 65% 1017.9hPa (30.06 inHg) 0.0mm (0.00 in.)
10:35 27.0°C (80.6 °F) 9.3 kmh (5.8 mph) ENE 61% 1017.9hPa (30.06 inHg) 0.0mm (0.00 in.)
9:35 28.0°C (82.4 °F) 5.6 kmh (3.5 mph) N 61% 1017.9hPa (30.06 inHg) 0.0mm (0.00 in.)
8:35 26.0°C (78.8 °F) 5.6 kmh (3.5 mph) N 73% 1017.9hPa (30.06 inHg) 0.0mm (0.00 in.)
7:35 23.0°C (73.4 °F) 5.6 kmh (3.5 mph) NW 83% 1017.9hPa (30.06 inHg) 0.0mm (0.00 in.)
6:35 22.0°C (71.6 °F) 1.9 kmh (1.2 mph) NNW 83% 1016.9hPa (30.03 inHg) 0.0mm (0.00 in.)
5:35 23.0°C (73.4 °F) 3.7 kmh (2.3 mph) WNW 83% 1016.9hPa (30.03 inHg) 0.0mm (0.00 in.)
4:35 23.0°C (73.4 °F) 0.0 kmh (0.0 mph) W 83% 1016.9hPa (30.03 inHg) 0.0mm (0.00 in.)
3:35 23.0°C (73.4 °F) 3.7 kmh (2.3 mph) W 83% 1016.9hPa (30.03 inHg) 0.0mm (0.00 in.)